createdAt,value
2017-10-25T00:02:23.799Z,8.27
2017-10-25T00:04:51.870Z,8.83
2017-10-25T00:07:19.931Z,9.50
2017-10-25T00:09:48.002Z,14.13
2017-10-25T00:12:16.064Z,8.73
2017-10-25T00:14:44.120Z,10.13
2017-10-25T00:17:12.188Z,9.93
2017-10-25T00:19:40.727Z,9.80
2017-10-25T00:22:08.803Z,10.00
2017-10-25T00:24:36.868Z,9.33
2017-10-25T00:27:04.939Z,10.80
2017-10-25T00:29:33.011Z,10.83
2017-10-25T00:32:01.095Z,10.83
2017-10-25T00:34:29.926Z,9.70
2017-10-25T00:36:58.038Z,9.70
2017-10-25T00:39:26.119Z,10.50
2017-10-25T00:41:54.199Z,9.83
2017-10-25T00:44:22.938Z,8.77
2017-10-25T00:46:50.999Z,10.40
2017-10-25T00:49:19.084Z,9.47
2017-10-25T00:51:47.197Z,8.80
2017-10-25T00:54:15.262Z,9.93
2017-10-25T00:56:44.294Z,10.13
2017-10-25T00:59:12.332Z,11.00
2017-10-25T01:01:40.399Z,10.10
2017-10-25T01:04:08.468Z,9.63
2017-10-25T01:06:36.671Z,10.53
2017-10-25T01:09:04.758Z,10.53
2017-10-25T01:11:32.835Z,10.93
2017-10-25T01:14:00.954Z,9.97
2017-10-25T01:16:29.828Z,11.37
2017-10-25T01:18:58.721Z,10.73
2017-10-25T01:21:27.670Z,9.50
2017-10-25T01:23:55.734Z,9.63
2017-10-25T01:26:23.802Z,9.83
2017-10-25T01:28:51.866Z,10.97
2017-10-25T01:31:20.148Z,10.97
2017-10-25T01:33:48.230Z,10.80
2017-10-25T01:36:16.328Z,10.00
2017-10-25T01:38:44.405Z,10.90
2017-10-25T01:41:13.264Z,10.70
2017-10-25T01:43:41.385Z,10.03
2017-10-25T01:46:10.270Z,10.63
2017-10-25T01:48:39.151Z,11.03
2017-10-25T01:51:08.773Z,13.73
2017-10-25T01:53:37.670Z,13.27
2017-10-25T01:56:06.509Z,12.87
2017-10-25T01:58:34.560Z,13.63
2017-10-25T02:01:02.646Z,13.90
2017-10-25T02:03:30.708Z,12.30
2017-10-25T02:05:58.776Z,15.07
2017-10-25T02:08:26.835Z,12.80
2017-10-25T02:10:54.924Z,14.50
2017-10-25T02:13:23.035Z,16.50
2017-10-25T02:15:51.181Z,18.40
2017-10-25T02:18:19.262Z,17.97
2017-10-25T02:20:47.332Z,19.63
2017-10-25T02:23:15.435Z,24.03
2017-10-25T02:25:44.292Z,22.63
2017-10-25T02:28:12.517Z,22.20
2017-10-25T02:30:41.360Z,20.37
2017-10-25T02:33:09.446Z,21.87
2017-10-25T02:35:37.515Z,22.67
2017-10-25T02:38:07.114Z,24.90
2017-10-25T02:40:35.234Z,28.10
2017-10-25T02:43:04.649Z,25.53
2017-10-25T02:45:32.763Z,25.47
2017-10-25T02:48:01.147Z,27.17
2017-10-25T02:50:30.031Z,30.40
2017-10-25T02:52:59.047Z,28.20
2017-10-25T02:55:27.909Z,29.43
2017-10-25T02:57:56.896Z,29.23
2017-10-25T03:00:24.998Z,28.30
2017-10-25T03:02:53.050Z,28.07
2017-10-25T03:05:21.121Z,26.50
2017-10-25T03:07:49.195Z,25.60
2017-10-25T03:10:17.283Z,24.87
2017-10-25T03:12:45.331Z,27.73
2017-10-25T03:15:13.400Z,22.33
2017-10-25T03:17:41.475Z,24.93
2017-10-25T03:20:09.543Z,24.07
2017-10-25T03:22:37.639Z,23.97
2017-10-25T03:25:05.710Z,22.43
2017-10-25T03:27:33.770Z,24.47
2017-10-25T03:30:01.853Z,21.23
2017-10-25T03:32:29.923Z,22.87
2017-10-25T03:34:58.065Z,22.30
2017-10-25T03:37:26.897Z,23.47
2017-10-25T03:39:54.966Z,20.63
2017-10-25T03:42:23.015Z,19.63
2017-10-25T03:44:51.096Z,20.90
2017-10-25T03:47:19.143Z,22.17
2017-10-25T03:49:47.983Z,22.27
2017-10-25T03:52:16.833Z,22.47
2017-10-25T03:54:44.977Z,22.97
2017-10-25T03:57:13.815Z,23.70
2017-10-25T03:59:42.651Z,21.93
2017-10-25T04:02:10.755Z,22.33
2017-10-25T04:04:38.833Z,24.83
2017-10-25T04:07:07.683Z,23.97
2017-10-25T04:09:35.774Z,24.33
2017-10-25T04:12:04.827Z,18.23
2017-10-25T04:14:32.911Z,20.13
2017-10-25T04:17:01.011Z,17.10
2017-10-25T04:19:29.108Z,17.10
2017-10-25T04:21:57.711Z,16.77
2017-10-25T04:24:25.798Z,17.00
2017-10-25T04:26:53.891Z,14.37
2017-10-25T04:29:21.975Z,14.47
2017-10-25T04:31:50.043Z,13.90
2017-10-25T04:34:18.124Z,12.80
2017-10-25T04:36:46.194Z,12.50
2017-10-25T04:39:14.250Z,10.60
2017-10-25T04:41:42.311Z,10.60
2017-10-25T04:44:11.730Z,11.13
2017-10-25T04:46:39.779Z,9.27
2017-10-25T04:49:07.849Z,8.70
2017-10-25T04:51:35.950Z,10.73
2017-10-25T04:54:04.423Z,9.57
2017-10-25T04:56:33.353Z,9.73
2017-10-25T04:59:01.494Z,9.97
2017-10-25T05:01:29.603Z,9.10
2017-10-25T05:03:58.495Z,11.83
2017-10-25T05:06:26.635Z,10.57
2017-10-25T05:08:54.714Z,11.33
2017-10-25T05:11:22.872Z,13.20
2017-10-25T05:13:51.018Z,8.90
2017-10-25T05:16:20.539Z,11.53
2017-10-25T05:18:49.459Z,10.10
2017-10-25T05:21:20.439Z,9.30
2017-10-25T05:23:51.087Z,9.50
2017-10-25T05:26:21.263Z,10.40
2017-10-25T05:28:51.952Z,10.87
2017-10-25T05:31:22.024Z,10.17
2017-10-25T05:33:52.350Z,11.13
2017-10-25T05:36:21.129Z,10.60
2017-10-25T05:38:54.121Z,9.60
2017-10-25T05:41:23.738Z,9.40
2017-10-25T05:43:52.714Z,10.03
2017-10-25T05:46:20.834Z,9.73
2017-10-25T05:48:49.618Z,10.27
2017-10-25T05:51:18.488Z,9.07
2017-10-25T05:53:47.658Z,9.43
2017-10-25T05:56:15.731Z,9.70
2017-10-25T05:58:44.616Z,7.83
2017-10-25T06:01:12.686Z,9.43
2017-10-25T06:03:40.756Z,8.90
2017-10-25T06:06:08.826Z,9.03
2017-10-25T06:08:36.877Z,8.70
2017-10-25T06:11:04.968Z,9.07
2017-10-25T06:13:33.067Z,8.60
2017-10-25T06:16:01.930Z,7.93
2017-10-25T06:18:29.996Z,7.80
2017-10-25T06:20:58.059Z,7.53
2017-10-25T06:23:26.138Z,8.90
2017-10-25T06:25:54.179Z,8.93
2017-10-25T06:28:22.254Z,8.53
2017-10-25T06:30:50.324Z,8.27
2017-10-25T06:33:18.378Z,9.53
2017-10-25T06:35:46.456Z,9.50
2017-10-25T06:38:15.377Z,8.40
2017-10-25T06:40:43.443Z,8.13
2017-10-25T06:43:11.511Z,9.70
2017-10-25T06:45:40.002Z,8.53
2017-10-25T06:48:09.158Z,8.27
2017-10-25T06:50:37.180Z,8.63
2017-10-25T06:53:05.246Z,8.90
2017-10-25T06:55:33.329Z,8.13
2017-10-25T06:58:01.388Z,8.07
2017-10-25T07:00:29.636Z,8.53
2017-10-25T07:02:57.701Z,7.30
2017-10-25T07:05:25.747Z,8.13
2017-10-25T07:07:53.839Z,8.90
2017-10-25T07:10:21.984Z,7.67
2017-10-25T07:12:50.808Z,7.00
2017-10-25T07:15:18.862Z,7.30
2017-10-25T07:17:46.932Z,7.60
2017-10-25T07:20:15.009Z,11.37
2017-10-25T07:22:43.086Z,8.40
2017-10-25T07:25:11.164Z,7.67
2017-10-25T07:27:39.230Z,8.30
2017-10-25T07:30:07.338Z,6.63
2017-10-25T07:32:35.407Z,8.07
2017-10-25T07:35:03.511Z,7.53
2017-10-25T07:37:31.552Z,6.13
2017-10-25T07:39:59.638Z,13.00
2017-10-25T07:42:27.677Z,7.03
2017-10-25T07:44:55.742Z,6.60
2017-10-25T07:47:23.830Z,7.20
2017-10-25T07:49:51.903Z,6.80
2017-10-25T07:52:19.954Z,6.10
2017-10-25T07:54:48.023Z,6.20
2017-10-25T07:57:16.094Z,6.83
2017-10-25T07:59:44.178Z,6.37
2017-10-25T08:02:13.003Z,5.80
2017-10-25T08:04:41.099Z,6.60
2017-10-25T08:07:09.171Z,7.57
2017-10-25T08:09:37.267Z,6.37
2017-10-25T08:12:05.335Z,6.27
2017-10-25T08:14:33.421Z,5.67
2017-10-25T08:17:01.512Z,6.07
2017-10-25T08:19:30.357Z,5.60
2017-10-25T08:21:58.419Z,6.00
2017-10-25T08:24:26.559Z,5.90
2017-10-25T08:26:54.674Z,6.63
2017-10-25T08:29:22.744Z,5.83
2017-10-25T08:31:51.147Z,7.27
2017-10-25T08:34:20.053Z,5.00
2017-10-25T08:36:48.105Z,5.00
2017-10-25T08:39:16.219Z,4.80
2017-10-25T08:41:44.303Z,5.43
2017-10-25T08:44:12.406Z,5.83
2017-10-25T08:46:40.683Z,5.77
2017-10-25T08:49:08.767Z,5.33
2017-10-25T08:51:37.632Z,4.80
2017-10-25T08:54:05.716Z,5.27
2017-10-25T08:56:33.768Z,4.77
2017-10-25T08:59:01.836Z,5.40
2017-10-25T09:01:29.894Z,4.13
2017-10-25T09:03:57.981Z,4.23
2017-10-25T09:06:26.084Z,4.63
2017-10-25T09:08:54.154Z,6.70
2017-10-25T09:11:22.227Z,4.80
2017-10-25T09:13:50.294Z,6.40
2017-10-25T09:16:18.356Z,5.47
2017-10-25T09:18:46.427Z,4.83
2017-10-25T09:21:14.517Z,8.13
2017-10-25T09:23:42.581Z,4.83
2017-10-25T09:26:10.739Z,4.53
2017-10-25T09:28:39.510Z,5.17
2017-10-25T09:31:07.578Z,6.37
2017-10-25T09:33:35.647Z,5.67
2017-10-25T09:36:03.712Z,5.83
2017-10-25T09:38:31.795Z,4.60
2017-10-25T09:40:59.867Z,4.73
2017-10-25T09:43:27.958Z,4.73
2017-10-25T09:45:56.043Z,4.67
2017-10-25T09:48:24.102Z,4.00
2017-10-25T09:50:53.274Z,3.93
2017-10-25T09:53:21.352Z,4.83
2017-10-25T09:55:49.447Z,4.73
2017-10-25T09:58:17.516Z,5.10
2017-10-25T10:00:45.611Z,5.90
2017-10-25T10:03:13.717Z,5.57
2017-10-25T10:05:41.827Z,5.03
2017-10-25T10:08:09.904Z,5.87
2017-10-25T10:10:37.973Z,6.27
2017-10-25T10:13:06.094Z,8.13
2017-10-25T10:15:34.162Z,6.43
2017-10-25T10:18:02.252Z,6.90
2017-10-25T10:20:30.306Z,7.10
2017-10-25T10:22:58.404Z,7.00
2017-10-25T10:25:26.453Z,6.67
2017-10-25T10:27:54.536Z,5.77
2017-10-25T10:30:24.124Z,7.47
2017-10-25T10:32:52.243Z,5.70
2017-10-25T10:35:21.093Z,5.83
2017-10-25T10:37:49.176Z,6.40
2017-10-25T10:40:17.277Z,7.50
2017-10-25T10:42:46.096Z,5.90
2017-10-25T10:45:14.200Z,6.20
2017-10-25T10:47:42.257Z,5.50
2017-10-25T10:50:10.333Z,10.73
2017-10-25T10:52:38.400Z,6.30
2017-10-25T10:55:06.476Z,6.90
2017-10-25T10:57:34.552Z,6.03
2017-10-25T11:00:03.338Z,6.47
2017-10-25T11:02:32.170Z,5.67
2017-10-25T11:05:01.012Z,6.07
2017-10-25T11:07:29.098Z,5.63
2017-10-25T11:09:57.161Z,6.67
2017-10-25T11:12:25.264Z,7.43
2017-10-25T11:14:53.327Z,6.60
2017-10-25T11:17:21.781Z,7.00
2017-10-25T11:19:49.827Z,6.60
2017-10-25T11:22:17.903Z,10.33
2017-10-25T11:24:46.005Z,5.90
2017-10-25T11:27:14.075Z,8.07
2017-10-25T11:29:42.135Z,6.50
2017-10-25T11:32:10.246Z,7.03
2017-10-25T11:34:38.312Z,7.27
2017-10-25T11:37:07.146Z,7.07
2017-10-25T11:39:35.213Z,6.33
2017-10-25T11:42:03.282Z,6.70
2017-10-25T11:44:31.362Z,7.10
2017-10-25T11:46:59.452Z,6.77
2017-10-25T11:49:27.515Z,6.20
2017-10-25T11:51:55.584Z,7.70
2017-10-25T11:54:23.679Z,6.07
2017-10-25T11:56:51.744Z,6.60
2017-10-25T11:59:19.818Z,9.50
2017-10-25T12:01:47.870Z,8.77
2017-10-25T12:04:19.472Z,8.70
2017-10-25T12:06:48.276Z,7.63
2017-10-25T12:09:16.335Z,8.60
2017-10-25T12:11:44.415Z,8.13
2017-10-25T12:14:12.483Z,8.03
2017-10-25T12:16:40.531Z,8.20
2017-10-25T12:19:08.609Z,11.03
2017-10-25T12:21:36.671Z,11.70
2017-10-25T12:24:05.511Z,10.20
2017-10-25T12:26:33.604Z,8.57
2017-10-25T12:29:01.669Z,10.30
2017-10-25T12:31:29.758Z,8.70
2017-10-25T12:33:58.596Z,9.57
2017-10-25T12:36:26.665Z,10.40
2017-10-25T12:38:54.762Z,12.00
2017-10-25T12:41:22.848Z,15.80
2017-10-25T12:43:50.921Z,10.83
2017-10-25T12:46:21.257Z,10.37
2017-10-25T12:48:50.153Z,11.67
2017-10-25T12:51:19.234Z,14.30
2017-10-25T12:53:47.282Z,10.50
2017-10-25T12:56:15.369Z,9.90
2017-10-25T12:58:43.478Z,10.93
2017-10-25T13:01:12.321Z,9.93
2017-10-25T13:03:40.383Z,10.30
2017-10-25T13:06:08.465Z,10.20
2017-10-25T13:08:36.535Z,11.60
2017-10-25T13:24:36.488Z,13.90
2017-10-25T13:27:04.576Z,13.63
2017-10-25T13:29:33.472Z,14.33
2017-10-25T13:32:02.319Z,13.47
2017-10-25T13:34:30.386Z,13.43
2017-10-25T13:36:58.525Z,12.37
2017-10-25T13:39:27.369Z,12.90
2017-10-25T13:41:55.440Z,15.63
2017-10-25T13:44:23.583Z,13.03
2017-10-25T13:46:51.667Z,13.40
2017-10-25T13:49:19.746Z,12.10
2017-10-25T13:51:47.835Z,13.23
2017-10-25T13:54:16.702Z,12.00
2017-10-25T13:56:44.788Z,12.97
2017-10-25T13:59:12.870Z,12.33
2017-10-25T14:01:42.156Z,13.07
2017-10-25T14:04:10.239Z,10.83
2017-10-25T14:06:38.330Z,12.43
2017-10-25T14:09:06.408Z,13.30
2017-10-25T14:11:34.483Z,12.87
2017-10-25T14:14:02.571Z,13.27
2017-10-25T14:16:31.411Z,11.90
2017-10-25T14:18:59.501Z,12.73
2017-10-25T14:21:27.570Z,10.53
2017-10-25T14:23:55.675Z,13.30
2017-10-25T14:26:35.688Z,12.67
2017-10-25T14:29:03.770Z,13.53
2017-10-25T14:31:31.862Z,13.27
2017-10-25T14:34:00.723Z,14.10
2017-10-25T14:36:28.809Z,13.83
2017-10-25T14:38:56.855Z,13.70
2017-10-25T14:41:24.936Z,13.80
2017-10-25T14:43:53.009Z,12.97
2017-10-25T14:46:21.070Z,14.10
2017-10-25T14:48:49.174Z,14.77
2017-10-25T14:51:17.253Z,16.30
2017-10-25T14:53:45.312Z,15.87
2017-10-25T14:56:13.414Z,17.47
2017-10-25T14:58:42.258Z,18.67
2017-10-25T15:01:10.339Z,21.30
2017-10-25T15:03:38.414Z,21.57
2017-10-25T15:06:06.483Z,25.37
2017-10-25T15:08:34.589Z,25.97
2017-10-25T15:11:02.642Z,27.73
2017-10-25T15:13:31.484Z,29.63
2017-10-25T15:15:59.559Z,29.43
2017-10-25T15:18:27.650Z,29.37
2017-10-25T15:20:55.742Z,33.53
2017-10-25T15:23:24.597Z,30.20
2017-10-25T15:25:52.673Z,32.37
2017-10-25T15:28:20.743Z,32.17
2017-10-25T15:30:48.826Z,34.07
2017-10-25T15:33:16.891Z,35.60
2017-10-25T15:35:45.007Z,33.97
2017-10-25T15:38:13.854Z,32.50
2017-10-25T15:40:41.926Z,34.10
2017-10-25T15:43:10.009Z,36.40
2017-10-25T15:45:38.062Z,32.77
2017-10-25T15:48:06.147Z,36.73
2017-10-25T15:50:34.229Z,34.90
2017-10-25T15:53:02.311Z,33.17
2017-10-25T15:55:31.147Z,33.90
2017-10-25T15:57:59.250Z,34.87
2017-10-25T16:00:27.322Z,32.40
2017-10-25T16:02:55.434Z,32.33
2017-10-25T16:05:23.521Z,32.53
2017-10-25T16:07:51.596Z,33.30
2017-10-25T16:10:19.676Z,32.63
2017-10-25T16:12:47.764Z,30.37
2017-10-25T16:15:15.850Z,30.00
2017-10-25T16:17:43.938Z,28.10
2017-10-25T16:20:12.007Z,27.53
2017-10-25T16:22:40.854Z,28.70
2017-10-25T16:25:08.944Z,28.90
2017-10-25T16:27:37.137Z,27.90
2017-10-25T16:30:05.217Z,29.63
2017-10-25T16:32:34.089Z,30.20
2017-10-25T16:35:02.178Z,30.50
2017-10-25T16:37:30.266Z,31.00
2017-10-25T16:39:59.120Z,32.23
2017-10-25T16:42:27.239Z,32.93
2017-10-25T16:44:56.082Z,34.07
2017-10-25T16:47:24.173Z,36.40
2017-10-25T16:49:53.053Z,37.77
2017-10-25T16:52:21.141Z,35.00
2017-10-25T16:54:50.006Z,36.60
2017-10-25T16:57:18.091Z,38.70
2017-10-25T16:59:46.967Z,37.63
2017-10-25T17:02:15.044Z,38.03
2017-10-25T17:04:43.408Z,37.97
2017-10-25T17:07:11.634Z,37.73
2017-10-25T17:09:39.680Z,38.80
2017-10-25T17:12:07.809Z,37.40
2017-10-25T17:14:36.665Z,38.50
2017-10-25T17:17:04.909Z,39.53
2017-10-25T17:19:32.970Z,39.73
2017-10-25T17:22:01.059Z,39.50
2017-10-25T17:24:29.212Z,38.47
2017-10-25T17:26:57.317Z,37.43
2017-10-25T17:29:25.378Z,36.67
2017-10-25T17:31:53.454Z,37.70
2017-10-25T17:34:21.540Z,35.97
2017-10-25T17:36:51.134Z,38.87
2017-10-25T17:39:19.218Z,35.70
2017-10-25T17:41:47.311Z,38.83
2017-10-25T17:44:15.399Z,35.17
2017-10-25T17:46:44.251Z,36.47
2017-10-25T17:49:12.366Z,37.33
2017-10-25T17:51:41.207Z,37.23
2017-10-25T17:54:09.317Z,37.80
2017-10-25T17:56:38.188Z,40.03
2017-10-25T17:59:07.195Z,36.40
2017-10-25T18:01:37.353Z,41.37
2017-10-25T18:04:06.517Z,38.70
2017-10-25T18:06:34.616Z,40.20
2017-10-25T18:09:03.759Z,41.77
2017-10-25T18:11:39.121Z,38.70
2017-10-25T18:14:07.179Z,40.90
2017-10-25T18:16:35.265Z,40.77
2017-10-25T18:19:03.361Z,39.57
2017-10-25T18:21:31.456Z,42.63
2017-10-25T18:23:59.554Z,41.30
2017-10-25T18:26:28.395Z,43.70
2017-10-25T18:28:56.483Z,39.07
2017-10-25T18:31:25.342Z,42.40
2017-10-25T18:33:53.437Z,43.37
2017-10-25T18:36:21.504Z,40.67
2017-10-25T18:38:49.600Z,41.70
2017-10-25T18:41:17.705Z,47.40
2017-10-25T18:43:45.943Z,42.07
2017-10-25T18:46:15.389Z,44.63
2017-10-25T18:48:48.951Z,41.43
2017-10-25T18:51:20.443Z,41.47
2017-10-25T18:53:49.914Z,42.23
2017-10-25T18:56:21.579Z,43.97
2017-10-25T18:58:50.880Z,41.57
2017-10-25T19:01:22.813Z,45.43
2017-10-25T19:03:52.182Z,45.33
2017-10-25T19:06:25.416Z,44.80
2017-10-25T19:08:59.186Z,48.30
2017-10-25T19:11:27.454Z,45.77
2017-10-25T19:14:00.527Z,46.37
2017-10-25T19:16:30.996Z,51.87
2017-10-25T19:19:01.010Z,46.10
2017-10-25T19:21:33.146Z,49.50
2017-10-25T19:24:02.928Z,50.33
2017-10-25T19:26:36.401Z,48.07
2017-10-25T19:29:08.695Z,49.40
2017-10-25T19:31:40.382Z,48.67
2017-10-25T19:34:20.102Z,49.27
2017-10-25T19:36:49.251Z,50.27
2017-10-25T19:39:17.501Z,50.30
2017-10-25T19:41:45.869Z,52.33
2017-10-25T19:44:14.157Z,53.60
2017-10-25T19:46:44.728Z,51.13
2017-10-25T19:49:13.737Z,53.43
2017-10-25T19:51:41.862Z,48.47
2017-10-25T19:54:09.957Z,50.30
2017-10-25T19:56:38.827Z,54.60
2017-10-25T19:59:06.898Z,58.07
2017-10-25T20:01:35.259Z,49.53
2017-10-25T20:04:03.314Z,48.23
2017-10-25T20:06:31.921Z,52.60
2017-10-25T20:09:00.004Z,51.50
2017-10-25T20:11:28.841Z,56.07
2017-10-25T20:13:56.950Z,52.37
2017-10-25T20:16:25.020Z,54.23
2017-10-25T20:18:53.121Z,54.03
2017-10-25T20:21:21.955Z,50.47
2017-10-25T20:23:50.062Z,48.60
2017-10-25T20:26:18.973Z,49.67
2017-10-25T20:28:47.791Z,54.17
2017-10-25T20:31:15.899Z,49.70
2017-10-25T20:33:44.014Z,48.77
2017-10-25T20:36:13.736Z,48.67
2017-10-25T20:38:41.857Z,49.50
2017-10-25T20:41:09.931Z,51.63
2017-10-25T20:43:38.036Z,52.73
2017-10-25T20:46:06.883Z,50.33
2017-10-25T20:48:35.772Z,48.53
2017-10-25T20:51:03.887Z,48.13
2017-10-25T20:53:31.995Z,49.50
2017-10-25T20:56:00.077Z,53.20
2017-10-25T20:58:28.179Z,48.30
2017-10-25T21:00:57.023Z,51.03
2017-10-25T21:03:25.112Z,49.70
2017-10-25T21:05:53.203Z,48.17
2017-10-25T21:08:21.255Z,49.97
2017-10-25T21:10:49.355Z,42.10
2017-10-25T21:13:17.447Z,50.10
2017-10-25T21:15:45.535Z,47.13
2017-10-25T21:18:14.400Z,44.13
2017-10-25T21:20:42.456Z,54.50
2017-10-25T21:23:11.235Z,49.57
2017-10-25T21:25:39.328Z,48.37
2017-10-25T21:28:07.399Z,48.80
2017-10-25T21:30:35.522Z,49.70
2017-10-25T21:33:03.593Z,50.20
2017-10-25T21:35:31.686Z,54.70
2017-10-25T21:37:59.757Z,54.07
2017-10-25T21:40:27.852Z,50.17
2017-10-25T21:42:55.924Z,47.50
2017-10-25T21:45:24.007Z,52.90
2017-10-25T21:47:52.113Z,53.00
2017-10-25T21:50:20.927Z,52.50
2017-10-25T21:52:48.998Z,52.80
2017-10-25T21:55:17.693Z,49.20
2017-10-25T21:57:45.768Z,47.53
2017-10-25T22:00:13.861Z,61.23
2017-10-25T22:02:41.943Z,55.43
2017-10-25T22:05:10.044Z,52.83
2017-10-25T22:07:38.900Z,48.73
2017-10-25T22:10:06.961Z,59.63
2017-10-25T22:12:35.032Z,52.93
2017-10-25T22:15:03.115Z,52.17
2017-10-25T22:17:31.194Z,52.50
2017-10-25T22:19:59.249Z,52.10
2017-10-25T22:22:27.334Z,52.03
2017-10-25T22:24:55.386Z,59.03
2017-10-25T22:27:23.484Z,58.27
2017-10-25T22:29:52.318Z,54.37
2017-10-25T22:32:20.397Z,53.90
2017-10-25T22:34:48.456Z,51.60
2017-10-25T22:37:16.526Z,60.27
2017-10-25T22:39:44.603Z,58.10
2017-10-25T22:42:12.700Z,57.30
2017-10-25T22:44:40.778Z,57.50
2017-10-25T22:47:08.847Z,55.40
2017-10-25T22:49:36.935Z,58.33
2017-10-25T22:52:05.010Z,63.90
2017-10-25T22:54:33.656Z,58.77
2017-10-25T22:57:01.834Z,61.33
2017-10-25T22:59:29.895Z,59.43
2017-10-25T23:01:57.993Z,50.50
2017-10-25T23:04:26.067Z,54.23
2017-10-25T23:06:54.136Z,64.00
2017-10-25T23:09:22.229Z,61.57
2017-10-25T23:11:51.127Z,64.33
2017-10-25T23:14:19.233Z,57.93
2017-10-25T23:16:47.315Z,58.97
2017-10-25T23:19:16.147Z,68.93
2017-10-25T23:21:44.231Z,70.87
2017-10-25T23:24:12.322Z,68.93
2017-10-25T23:26:40.399Z,71.33
2017-10-25T23:29:08.468Z,69.97
2017-10-25T23:31:36.559Z,71.93
2017-10-25T23:34:04.660Z,65.43
2017-10-25T23:36:33.487Z,64.70
2017-10-25T23:39:01.567Z,69.93
2017-10-25T23:41:29.639Z,70.43
2017-10-25T23:43:57.712Z,62.13
2017-10-25T23:46:25.786Z,67.00
2017-10-25T23:48:55.377Z,58.30
2017-10-25T23:51:23.459Z,70.27
2017-10-25T23:53:51.531Z,53.83
2017-10-25T23:56:19.608Z,63.63
2017-10-25T23:58:47.706Z,62.73
